Time;durP1;ratioP1;P1;durP2;ratioP2;P2;SDS_P1;SDS_P2;PMS_P1;PMS_P2;Temp;Humidity;BMP_temperature;BMP_pressure;BME280_temperature;BME280_humidity;BME280_pressure;Samples;Min_cycle;Max_cycle;Signal;HPM_P1;HPM_P2
2024/03/21 00:00:31;;;;;;;14.60;2.83;;;;;;;;;;2065992;28;20026;-44
2024/03/21 00:01:33;;;;;;;17.90;2.88;;;;;;;;;;2065989;28;20585;-44
2024/03/21 00:02:35;;;;;;;17.77;3.20;;;;;;;;;;2065033;28;20371;-44
2024/03/21 00:03:36;;;;;;;11.73;3.15;;;;;;;;;;2065262;28;20105;-44
2024/03/21 00:04:37;;;;;;;15.07;3.28;;;;;;;;;;2066046;28;20017;-45
2024/03/21 00:05:38;;;;;;;13.02;3.00;;;;;;;;;;2062852;28;20023;-46
2024/03/21 00:06:40;;;;;;;15.05;3.28;;;;;;;;;;2058020;28;20027;-44
2024/03/21 00:07:46;;;;;;;12.38;2.75;;;;;;;;;;2057917;28;20441;-45
2024/03/21 00:08:47;;;;;;;13.77;3.10;;;;;;;;;;2057989;28;20030;-45
2024/03/21 00:09:48;;;;;;;10.93;3.15;;;;;;;;;;2058060;28;20034;-44
2024/03/21 00:10:50;;;;;;;15.27;3.15;;;;;;;;;;2058690;28;20031;-46
2024/03/21 00:11:51;;;;;;;10.43;2.92;;;;;;;;;;2057820;28;20027;-44
2024/03/21 00:12:53;;;;;;;15.40;2.90;;;;;;;;;;2065193;28;20129;-45
2024/03/21 00:13:54;;;;;;;16.85;3.25;;;;;;;;;;2065434;28;20118;-45
2024/03/21 00:14:55;;;;;;;16.75;3.47;;;;;;;;;;2062731;28;20033;-46
2024/03/21 00:15:57;;;;;;;14.60;3.00;;;;;;;;;;2065263;28;20101;-45
2024/03/21 00:16:58;;;;;;;15.02;3.03;;;;;;;;;;2058514;28;20435;-44
2024/03/21 00:18:00;;;;;;;16.67;3.40;;;;;;;;;;2057037;28;20038;-44
2024/03/21 00:19:03;;;;;;;13.55;3.33;;;;;;;;;;2058105;28;20019;-52
2024/03/21 00:20:09;;;;;;;17.25;3.53;;;;;;;;;;2058114;28;20015;-51
2024/03/21 00:21:11;;;;;;;14.50;2.80;;;;;;;;;;2057914;28;20030;-51
2024/03/21 00:22:12;;;;;;;10.18;2.80;;;;;;;;;;2057968;28;20027;-52
2024/03/21 00:23:13;;;;;;;13.82;3.35;;;;;;;;;;2062403;28;20573;-52
2024/03/21 00:24:16;;;;;;;11.15;3.35;;;;;;;;;;2065994;28;20018;-52
2024/03/21 00:25:18;;;;;;;13.02;3.47;;;;;;;;;;2065974;28;20117;-52
2024/03/21 00:26:19;;;;;;;14.95;3.88;;;;;;;;;;2065933;28;20022;-52
2024/03/21 00:27:21;;;;;;;11.85;4.13;;;;;;;;;;2062227;28;20032;-49
2024/03/21 00:28:22;;;;;;;11.80;4.03;;;;;;;;;;2064201;28;20556;-51
2024/03/21 00:29:24;;;;;;;13.27;3.13;;;;;;;;;;2059845;28;20058;-52
2024/03/21 00:30:26;;;;;;;9.80;2.45;;;;;;;;;;2065748;28;20501;-54
2024/03/21 00:31:27;;;;;;;12.95;3.10;;;;;;;;;;2058164;28;20527;-52
2024/03/21 00:32:28;;;;;;;11.30;2.92;;;;;;;;;;2057128;28;20042;-53
2024/03/21 00:33:30;;;;;;;13.52;2.88;;;;;;;;;;2057314;28;20110;-51
2024/03/21 00:34:31;;;;;;;12.80;2.95;;;;;;;;;;2057394;28;20663;-50
2024/03/21 00:35:32;;;;;;;16.20;3.15;;;;;;;;;;2055916;28;20031;-52
2024/03/21 00:36:35;;;;;;;14.77;2.60;;;;;;;;;;2065296;28;20375;-52
2024/03/21 00:37:36;;;;;;;13.10;3.72;;;;;;;;;;2058700;28;20482;-53
2024/03/21 00:38:37;;;;;;;16.05;3.03;;;;;;;;;;2057638;28;20504;-54
2024/03/21 00:39:42;;;;;;;10.48;2.70;;;;;;;;;;2061388;28;20072;-51
2024/03/21 00:40:43;;;;;;;10.77;3.13;;;;;;;;;;2065655;28;20094;-52
2024/03/21 00:41:45;;;;;;;18.45;3.75;;;;;;;;;;2064726;28;20018;-46
2024/03/21 00:42:47;;;;;;;11.60;2.80;;;;;;;;;;2057520;28;20034;-52
2024/03/21 00:43:48;;;;;;;13.15;2.67;;;;;;;;;;2057714;28;20050;-53
2024/03/21 00:44:50;;;;;;;15.20;2.60;;;;;;;;;;2059555;28;20060;-52
2024/03/21 00:45:51;;;;;;;10.52;3.10;;;;;;;;;;2057812;28;20027;-51
2024/03/21 00:46:52;;;;;;;15.15;2.60;;;;;;;;;;2056880;28;20513;-51
2024/03/21 00:47:54;;;;;;;11.90;2.95;;;;;;;;;;2065101;28;20113;-51
2024/03/21 00:48:55;;;;;;;17.35;3.53;;;;;;;;;;2064780;28;20500;-52
2024/03/21 00:49:56;;;;;;;11.82;2.45;;;;;;;;;;2065066;28;20093;-52
2024/03/21 00:50:58;;;;;;;10.98;2.55;;;;;;;;;;2065709;28;20023;-52
2024/03/21 00:51:59;;;;;;;12.65;2.90;;;;;;;;;;2065575;28;20026;-51
2024/03/21 00:53:00;;;;;;;13.30;2.83;;;;;;;;;;2065645;28;20022;-52
2024/03/21 00:54:02;;;;;;;11.38;3.60;;;;;;;;;;2065598;28;20056;-45
2024/03/21 00:55:03;;;;;;;11.30;2.45;;;;;;;;;;2063826;28;20041;-44
2024/03/21 00:56:06;;;;;;;11.13;3.00;;;;;;;;;;2062975;28;20026;-46
2024/03/21 00:57:08;;;;;;;12.35;2.30;;;;;;;;;;2057290;28;20027;-43
2024/03/21 00:58:09;;;;;;;13.13;3.50;;;;;;;;;;2060849;28;20023;-45
2024/03/21 00:59:10;;;;;;;14.93;3.08;;;;;;;;;;2064422;28;20452;-44
2024/03/21 01:00:13;;;;;;;21.50;6.25;;;;;;;;;;2065522;28;20050;-43
2024/03/21 01:01:15;;;;;;;12.70;3.35;;;;;;;;;;2065508;28;20045;-45
2024/03/21 01:02:16;;;;;;;14.55;3.25;;;;;;;;;;2064505;28;20497;-46
2024/03/21 01:03:17;;;;;;;8.55;2.65;;;;;;;;;;2063438;28;20030;-44
2024/03/21 01:04:20;;;;;;;14.90;2.58;;;;;;;;;;2057154;28;20508;-45
2024/03/21 01:05:21;;;;;;;11.73;2.60;;;;;;;;;;2057542;28;20034;-45
2024/03/21 01:06:22;;;;;;;9.80;3.13;;;;;;;;;;2056881;28;20098;-44
2024/03/21 01:07:24;;;;;;;8.00;2.35;;;;;;;;;;2056758;28;20054;-47
2024/03/21 01:08:25;;;;;;;17.67;3.03;;;;;;;;;;2056344;28;20530;-46
2024/03/21 01:09:26;;;;;;;16.98;3.17;;;;;;;;;;2057000;28;20027;-45
2024/03/21 01:10:28;;;;;;;9.75;2.40;;;;;;;;;;2057459;28;20030;-45
2024/03/21 01:11:29;;;;;;;10.45;2.38;;;;;;;;;;2056928;28;20427;-44
2024/03/21 01:12:31;;;;;;;10.30;2.58;;;;;;;;;;2057020;28;20525;-44
2024/03/21 01:13:32;;;;;;;8.73;2.75;;;;;;;;;;2057447;28;20520;-44
2024/03/21 01:14:33;;;;;;;10.27;2.75;;;;;;;;;;2056923;28;20470;-43
2024/03/21 01:15:35;;;;;;;10.93;2.17;;;;;;;;;;2048875;28;20043;-45
2024/03/21 01:16:36;;;;;;;10.43;3.45;;;;;;;;;;2060013;28;20122;-45
2024/03/21 01:17:38;;;;;;;12.05;2.83;;;;;;;;;;2060655;28;20026;-52
2024/03/21 01:18:40;;;;;;;11.68;2.78;;;;;;;;;;2055699;28;20072;-45
2024/03/21 01:19:42;;;;;;;10.80;2.58;;;;;;;;;;2061806;28;20018;-45
2024/03/21 01:20:43;;;;;;;13.13;3.00;;;;;;;;;;2057386;28;20131;-45
2024/03/21 01:21:44;;;;;;;11.43;2.40;;;;;;;;;;2057362;28;20023;-46
2024/03/21 01:22:46;;;;;;;12.85;3.03;;;;;;;;;;2057456;28;20022;-44
2024/03/21 01:23:47;;;;;;;8.13;2.40;;;;;;;;;;2065365;28;20053;-45
2024/03/21 01:24:48;;;;;;;10.95;2.30;;;;;;;;;;2062236;28;20035;-45
2024/03/21 01:25:50;;;;;;;14.38;2.78;;;;;;;;;;2059346;28;20497;-45
2024/03/21 01:26:51;;;;;;;7.70;2.22;;;;;;;;;;2064784;28;20022;-45
2024/03/21 01:27:54;;;;;;;10.52;2.53;;;;;;;;;;2060574;28;20050;-45
2024/03/21 01:28:55;;;;;;;12.27;2.88;;;;;;;;;;2064985;28;20046;-49
2024/03/21 01:29:57;;;;;;;12.50;2.13;;;;;;;;;;2061315;28;20038;-49
2024/03/21 01:31:00;;;;;;;8.95;2.83;;;;;;;;;;2057927;28;20034;-49
2024/03/21 01:32:01;;;;;;;9.50;2.53;;;;;;;;;;2056579;28;20057;-51
2024/03/21 01:33:05;;;;;;;10.32;2.53;;;;;;;;;;2060141;28;20049;-51
2024/03/21 01:34:06;;;;;;;10.55;3.05;;;;;;;;;;2060466;28;20023;-49
2024/03/21 01:35:08;;;;;;;8.85;2.13;;;;;;;;;;2061400;28;20517;-51
2024/03/21 01:36:10;;;;;;;9.75;2.70;;;;;;;;;;2062814;28;20061;-50
2024/03/21 01:37:11;;;;;;;13.43;2.20;;;;;;;;;;2058060;28;20030;-50
2024/03/21 01:38:13;;;;;;;9.40;2.20;;;;;;;;;;2061508;28;20023;-51
2024/03/21 01:39:15;;;;;;;11.30;2.25;;;;;;;;;;2062915;28;20031;-50
2024/03/21 01:40:16;;;;;;;7.82;1.98;;;;;;;;;;2065355;28;20031;-49
2024/03/21 01:41:18;;;;;;;7.47;2.33;;;;;;;;;;2065208;28;20089;-51
2024/03/21 01:42:20;;;;;;;12.40;2.17;;;;;;;;;;2065227;28;20027;-51
2024/03/21 01:43:24;;;;;;;8.48;2.72;;;;;;;;;;2063312;28;20041;-51
2024/03/21 01:44:25;;;;;;;13.55;2.13;;;;;;;;;;2063841;28;20057;-52
2024/03/21 01:45:27;;;;;;;6.97;2.28;;;;;;;;;;2064844;28;20034;-48
2024/03/21 01:46:29;;;;;;;8.50;2.22;;;;;;;;;;2065312;28;20502;-51
2024/03/21 01:47:30;;;;;;;12.45;2.15;;;;;;;;;;2065219;28;20030;-50
2024/03/21 01:48:31;;;;;;;11.52;2.58;;;;;;;;;;2065262;28;20050;-49
2024/03/21 01:49:33;;;;;;;10.77;2.28;;;;;;;;;;2065082;28;20021;-51
2024/03/21 01:50:35;;;;;;;9.52;2.53;;;;;;;;;;2065335;28;20018;-52
2024/03/21 01:51:37;;;;;;;10.00;2.25;;;;;;;;;;2064956;28;20117;-48
2024/03/21 01:52:40;;;;;;;14.38;2.03;;;;;;;;;;2065257;28;20101;-51
2024/03/21 01:53:42;;;;;;;7.90;2.33;;;;;;;;;;2061175;28;20042;-51
2024/03/21 01:54:43;;;;;;;13.57;2.33;;;;;;;;;;2058681;28;20027;-50
2024/03/21 01:55:44;;;;;;;9.52;1.90;;;;;;;;;;2059704;28;20030;-50
2024/03/21 01:56:47;;;;;;;8.57;2.42;;;;;;;;;;2064497;28;20022;-51
2024/03/21 01:57:49;;;;;;;8.88;2.08;;;;;;;;;;2062292;28;20026;-51
2024/03/21 01:58:50;;;;;;;9.63;1.80;;;;;;;;;;2062877;28;20073;-50
2024/03/21 01:59:56;;;;;;;9.30;2.38;;;;;;;;;;2057175;28;20054;-49
2024/03/21 02:00:58;;;;;;;8.48;2.20;;;;;;;;;;2057008;28;20026;-48
2024/03/21 02:02:00;;;;;;;11.88;2.05;;;;;;;;;;2057003;28;20164;-48
2024/03/21 02:03:01;;;;;;;10.50;2.38;;;;;;;;;;2057207;28;20035;-51
2024/03/21 02:04:04;;;;;;;10.30;2.50;;;;;;;;;;2064445;28;20086;-52
2024/03/21 02:05:07;;;;;;;7.03;2.00;;;;;;;;;;2061331;28;20106;-51
2024/03/21 02:06:08;;;;;;;9.57;2.58;;;;;;;;;;2056953;28;20098;-50
2024/03/21 02:07:14;;;;;;;11.23;1.98;;;;;;;;;;2056707;28;20050;-49
2024/03/21 02:08:16;;;;;;;8.85;1.83;;;;;;;;;;2056554;28;20018;-48
2024/03/21 02:09:21;;;;;;;8.32;2.05;;;;;;;;;;2057022;28;20027;-51
2024/03/21 02:10:22;;;;;;;10.57;2.42;;;;;;;;;;2057084;28;20035;-50
2024/03/21 02:11:23;;;;;;;9.25;2.85;;;;;;;;;;2048393;28;20031;-51
2024/03/21 02:12:42;;;;;;;8.05;2.10;;;;;;;;;;2048667;28;20027;-51
2024/03/21 02:13:44;;;;;;;7.65;2.45;;;;;;;;;;2057172;28;20067;-51
2024/03/21 02:14:45;;;;;;;10.52;2.58;;;;;;;;;;2057198;28;20069;-51
2024/03/21 02:15:47;;;;;;;5.85;2.33;;;;;;;;;;2056690;28;20044;-49
2024/03/21 02:16:48;;;;;;;6.13;1.70;;;;;;;;;;2056128;28;20053;-45
2024/03/21 02:17:49;;;;;;;12.77;2.42;;;;;;;;;;2064255;28;20350;-49
2024/03/21 02:18:51;;;;;;;10.57;2.30;;;;;;;;;;2064559;28;20034;-51
2024/03/21 02:19:52;;;;;;;6.10;1.60;;;;;;;;;;2065260;28;20033;-50
2024/03/21 02:20:53;;;;;;;10.98;2.28;;;;;;;;;;2065132;28;20030;-50
2024/03/21 02:23:16;;;;;;;7.05;1.63;;;;;;;;;;2065172;28;20416;-44
2024/03/21 02:24:17;;;;;;;10.43;2.15;;;;;;;;;;2061874;28;20050;-44
2024/03/21 02:25:18;;;;;;;5.80;1.42;;;;;;;;;;2064548;28;20058;-44
2024/03/21 02:26:20;;;;;;;6.53;2.10;;;;;;;;;;2063372;28;20030;-45
2024/03/21 02:27:21;;;;;;;11.68;2.75;;;;;;;;;;2064424;28;20401;-45
2024/03/21 02:28:23;;;;;;;10.10;2.20;;;;;;;;;;2060459;28;20081;-44
2024/03/21 02:29:24;;;;;;;13.02;2.72;;;;;;;;;;2061735;28;20033;-44
2024/03/21 02:30:25;;;;;;;9.15;1.83;;;;;;;;;;2064487;28;20034;-44
2024/03/21 02:31:26;;;;;;;9.10;1.50;;;;;;;;;;2057477;28;20031;-43
2024/03/21 02:32:28;;;;;;;10.75;2.25;;;;;;;;;;2064154;28;20050;-45
2024/03/21 02:33:29;;;;;;;10.07;1.98;;;;;;;;;;2065122;28;20843;-44
2024/03/21 02:34:31;;;;;;;8.82;1.90;;;;;;;;;;2065094;28;20022;-45
2024/03/21 02:35:32;;;;;;;5.93;2.15;;;;;;;;;;2064950;28;20015;-44
2024/03/21 02:36:34;;;;;;;10.40;2.85;;;;;;;;;;2057954;28;20030;-44
2024/03/21 02:37:35;;;;;;;4.97;1.52;;;;;;;;;;2056761;28;20090;-45
2024/03/21 02:38:37;;;;;;;3.70;1.02;;;;;;;;;;2061082;28;20026;-44
2024/03/21 02:39:38;;;;;;;7.68;1.92;;;;;;;;;;2064023;28;20018;-44
2024/03/21 02:40:39;;;;;;;9.73;1.98;;;;;;;;;;2056876;28;20030;-44
2024/03/21 02:41:41;;;;;;;5.13;1.67;;;;;;;;;;2056780;28;20026;-44
2024/03/21 02:42:42;;;;;;;6.50;1.63;;;;;;;;;;2056732;28;20082;-51
2024/03/21 02:43:43;;;;;;;8.77;1.80;;;;;;;;;;2056724;28;20378;-51
2024/03/21 02:44:46;;;;;;;6.88;2.13;;;;;;;;;;2056695;28;20045;-51
2024/03/21 02:45:47;;;;;;;9.23;1.58;;;;;;;;;;2063804;28;20488;-52
2024/03/21 02:46:49;;;;;;;7.88;1.50;;;;;;;;;;2064910;28;20460;-45
2024/03/21 02:47:50;;;;;;;10.48;2.05;;;;;;;;;;2064925;28;20097;-44
2024/03/21 02:48:52;;;;;;;6.82;1.98;;;;;;;;;;2064885;28;20034;-46
2024/03/21 02:49:53;;;;;;;6.03;1.95;;;;;;;;;;2063181;28;20536;-44
2024/03/21 02:50:54;;;;;;;6.43;1.52;;;;;;;;;;2064711;28;20088;-43
2024/03/21 02:51:56;;;;;;;7.47;1.52;;;;;;;;;;2064988;28;20014;-43
2024/03/21 02:52:58;;;;;;;8.68;2.30;;;;;;;;;;2064818;28;20053;-43
2024/03/21 02:53:59;;;;;;;6.00;1.60;;;;;;;;;;2064844;28;20049;-45
2024/03/21 02:55:01;;;;;;;5.90;1.50;;;;;;;;;;2064176;28;20023;-44
2024/03/21 02:56:02;;;;;;;7.47;1.60;;;;;;;;;;2056468;28;20031;-44
2024/03/21 02:57:04;;;;;;;5.97;1.60;;;;;;;;;;2056699;28;20442;-45
2024/03/21 02:58:05;;;;;;;9.13;2.00;;;;;;;;;;2056211;28;20018;-44
2024/03/21 02:59:08;;;;;;;6.22;1.70;;;;;;;;;;2056009;28;20498;-45
2024/03/21 03:00:10;;;;;;;7.20;2.15;;;;;;;;;;2056090;28;20118;-44
2024/03/21 03:01:11;;;;;;;6.93;1.83;;;;;;;;;;2063766;28;20029;-45
2024/03/21 03:02:15;;;;;;;6.75;1.35;;;;;;;;;;2058269;28;20034;-45
2024/03/21 03:03:16;;;;;;;8.55;1.75;;;;;;;;;;2064041;28;20560;-44
2024/03/21 03:04:17;;;;;;;6.63;1.75;;;;;;;;;;2063966;28;20022;-44
2024/03/21 03:05:20;;;;;;;6.65;1.38;;;;;;;;;;2064230;28;20018;-44
2024/03/21 03:06:21;;;;;;;7.32;1.58;;;;;;;;;;2064812;28;20026;-45
2024/03/21 03:07:23;;;;;;;6.10;1.60;;;;;;;;;;2064687;28;20023;-46
2024/03/21 03:08:24;;;;;;;5.50;1.80;;;;;;;;;;2064348;28;20014;-46
2024/03/21 03:09:25;;;;;;;6.15;1.95;;;;;;;;;;2063139;28;20054;-52
2024/03/21 03:10:27;;;;;;;6.80;1.73;;;;;;;;;;2056184;28;20031;-51
2024/03/21 03:11:28;;;;;;;6.68;1.33;;;;;;;;;;2064051;28;20466;-51
2024/03/21 03:12:29;;;;;;;7.75;1.88;;;;;;;;;;2064750;28;20029;-53
2024/03/21 03:13:31;;;;;;;5.28;1.38;;;;;;;;;;2064618;28;20030;-51
2024/03/21 03:14:32;;;;;;;6.95;1.48;;;;;;;;;;2064885;28;20034;-52
2024/03/21 03:15:34;;;;;;;4.85;1.30;;;;;;;;;;2064772;28;20045;-52
2024/03/21 03:16:36;;;;;;;6.25;1.48;;;;;;;;;;2058882;28;20413;-53
2024/03/21 03:17:37;;;;;;;8.45;1.55;;;;;;;;;;2056029;28;20373;-53
2024/03/21 03:18:39;;;;;;;8.70;1.77;;;;;;;;;;2056097;28;20506;-52
2024/03/21 03:19:41;;;;;;;9.82;1.77;;;;;;;;;;2056461;28;20011;-50
2024/03/21 03:20:43;;;;;;;5.38;1.63;;;;;;;;;;2056775;28;20038;-52
2024/03/21 03:21:44;;;;;;;7.55;2.10;;;;;;;;;;2060872;28;20065;-51
2024/03/21 03:22:46;;;;;;;5.53;1.77;;;;;;;;;;2064767;28;20400;-51
2024/03/21 03:23:47;;;;;;;6.43;1.80;;;;;;;;;;2061254;28;20512;-44
2024/03/21 03:24:48;;;;;;;8.90;1.90;;;;;;;;;;2056512;28;20065;-53
2024/03/21 03:25:51;;;;;;;6.50;1.40;;;;;;;;;;2056767;28;20015;-54
2024/03/21 03:26:52;;;;;;;6.53;1.75;;;;;;;;;;2056553;28;20026;-52
2024/03/21 03:27:56;;;;;;;7.00;1.42;;;;;;;;;;2056550;28;20019;-51
2024/03/21 03:28:57;;;;;;;7.55;1.52;;;;;;;;;;2056365;28;20063;-51
2024/03/21 03:29:59;;;;;;;8.95;1.85;;;;;;;;;;2056590;28;20011;-52
2024/03/21 03:31:00;;;;;;;6.15;1.63;;;;;;;;;;2056632;28;20058;-53
2024/03/21 03:32:03;;;;;;;8.75;1.95;;;;;;;;;;2055945;28;20033;-51
2024/03/21 03:35:44;;;;;;;7.35;1.88;;;;;;;;;;2056727;28;20042;-49
2024/03/21 03:36:46;;;;;;;8.88;2.08;;;;;;;;;;2056346;28;20038;-50
2024/03/21 03:37:47;;;;;;;7.47;1.83;;;;;;;;;;2057439;28;20122;-52
2024/03/21 03:38:49;;;;;;;9.00;2.00;;;;;;;;;;2056534;28;20027;-51
2024/03/21 03:39:50;;;;;;;6.70;1.70;;;;;;;;;;2056760;28;20039;-52
2024/03/21 03:40:51;;;;;;;5.97;1.60;;;;;;;;;;2056660;28;20034;-53
2024/03/21 03:41:53;;;;;;;4.15;1.58;;;;;;;;;;2062075;28;20126;-52
2024/03/21 03:42:54;;;;;;;6.70;1.40;;;;;;;;;;2064085;28;20030;-51
2024/03/21 03:43:56;;;;;;;7.40;1.52;;;;;;;;;;2059700;28;20356;-44
2024/03/21 03:44:57;;;;;;;10.10;1.95;;;;;;;;;;2056115;28;20093;-44
2024/03/21 03:45:58;;;;;;;7.68;1.70;;;;;;;;;;2055975;28;20426;-44
2024/03/21 03:47:00;;;;;;;6.28;1.65;;;;;;;;;;2056077;28;20023;-44
2024/03/21 03:48:01;;;;;;;6.25;1.88;;;;;;;;;;2056570;28;20018;-43
2024/03/21 03:49:02;;;;;;;7.45;1.67;;;;;;;;;;2056207;28;20054;-44
2024/03/21 03:50:04;;;;;;;7.45;1.90;;;;;;;;;;2056623;28;20027;-43
2024/03/21 03:51:05;;;;;;;7.10;1.58;;;;;;;;;;2056540;28;20027;-45
2024/03/21 03:52:07;;;;;;;9.73;1.90;;;;;;;;;;2056630;28;20397;-46
2024/03/21 03:53:08;;;;;;;6.13;1.63;;;;;;;;;;2056686;28;20077;-45
2024/03/21 03:54:09;;;;;;;7.53;1.38;;;;;;;;;;2056630;28;20019;-45
2024/03/21 03:55:10;;;;;;;6.95;1.80;;;;;;;;;;2056557;28;20153;-46
2024/03/21 03:56:12;;;;;;;5.00;1.30;;;;;;;;;;2056625;28;20029;-45
2024/03/21 03:57:13;;;;;;;6.32;1.77;;;;;;;;;;2055786;28;20383;-46
2024/03/21 03:58:15;;;;;;;5.47;1.50;;;;;;;;;;2055781;28;20425;-45
2024/03/21 03:59:16;;;;;;;7.60;1.85;;;;;;;;;;2055778;28;20030;-46
2024/03/21 04:00:17;;;;;;;5.45;1.25;;;;;;;;;;2055765;28;20643;-46
2024/03/21 04:01:19;;;;;;;5.20;1.50;;;;;;;;;;2050490;28;20059;-45
2024/03/21 04:02:21;;;;;;;5.85;1.60;;;;;;;;;;2063782;28;20023;-44
2024/03/21 04:03:23;;;;;;;4.93;1.40;;;;;;;;;;2062377;28;20034;-48
2024/03/21 04:04:25;;;;;;;5.43;1.67;;;;;;;;;;2064029;28;20105;-52
2024/03/21 04:05:27;;;;;;;7.20;1.70;;;;;;;;;;2063904;28;20381;-51
2024/03/21 04:06:28;;;;;;;4.40;1.23;;;;;;;;;;2061876;28;20061;-51
2024/03/21 04:07:30;;;;;;;7.00;1.63;;;;;;;;;;2055865;28;20019;-51
2024/03/21 04:08:31;;;;;;;5.65;1.50;;;;;;;;;;2056980;28;20037;-50
2024/03/21 04:09:32;;;;;;;6.88;1.60;;;;;;;;;;2061704;28;20092;-50
2024/03/21 04:10:34;;;;;;;6.15;1.70;;;;;;;;;;2066166;28;20050;-50
2024/03/21 04:11:35;;;;;;;7.35;1.33;;;;;;;;;;2066182;28;20018;-51
2024/03/21 04:12:36;;;;;;;8.38;2.28;;;;;;;;;;2066138;28;20019;-50
2024/03/21 04:13:37;;;;;;;8.10;1.80;;;;;;;;;;2066078;28;20476;-50
2024/03/21 04:14:39;;;;;;;4.80;1.40;;;;;;;;;;2066132;28;20019;-50
2024/03/21 04:15:41;;;;;;;10.57;2.17;;;;;;;;;;2065316;28;20382;-51
2024/03/21 04:16:42;;;;;;;6.80;1.80;;;;;;;;;;2061020;28;20007;-49
2024/03/21 04:17:43;;;;;;;5.80;1.45;;;;;;;;;;2057861;28;20142;-52
2024/03/21 04:18:45;;;;;;;10.32;2.03;;;;;;;;;;2057973;28;20033;-53
2024/03/21 04:19:46;;;;;;;6.57;1.58;;;;;;;;;;2058138;28;20022;-51
2024/03/21 04:20:49;;;;;;;6.38;1.88;;;;;;;;;;2057926;28;20053;-48
2024/03/21 04:21:51;;;;;;;3.78;1.33;;;;;;;;;;2057976;28;20098;-49
2024/03/21 04:22:53;;;;;;;4.40;1.35;;;;;;;;;;2057450;28;20011;-51
2024/03/21 04:23:54;;;;;;;5.25;1.40;;;;;;;;;;2057196;28;20054;-51
2024/03/21 04:24:55;;;;;;;5.45;1.63;;;;;;;;;;2058793;28;20097;-51
2024/03/21 04:25:56;;;;;;;7.10;1.58;;;;;;;;;;2057354;28;20474;-50
2024/03/21 04:26:58;;;;;;;7.75;1.60;;;;;;;;;;2057038;28;20037;-48
2024/03/21 04:27:59;;;;;;;6.35;1.70;;;;;;;;;;2057026;28;20101;-50
2024/03/21 04:29:00;;;;;;;6.18;1.73;;;;;;;;;;2056983;28;20045;-50
2024/03/21 04:30:02;;;;;;;5.18;1.75;;;;;;;;;;2057625;28;20465;-50
2024/03/21 04:31:04;;;;;;;7.28;1.63;;;;;;;;;;2064126;28;20177;-51
2024/03/21 04:32:05;;;;;;;4.53;1.30;;;;;;;;;;2062908;28;20034;-52
2024/03/21 04:33:07;;;;;;;8.10;2.17;;;;;;;;;;2064912;28;20080;-52
2024/03/21 04:34:10;;;;;;;7.28;1.60;;;;;;;;;;2066080;28;20529;-46
2024/03/21 04:35:11;;;;;;;8.70;1.77;;;;;;;;;;2065554;28;20026;-50
2024/03/21 04:36:12;;;;;;;9.48;2.05;;;;;;;;;;2065211;28;20034;-51
2024/03/21 04:37:17;;;;;;;5.78;1.15;;;;;;;;;;2065358;28;20093;-49
2024/03/21 04:38:19;;;;;;;6.22;1.98;;;;;;;;;;2065932;28;20559;-48
2024/03/21 04:39:20;;;;;;;6.75;2.10;;;;;;;;;;2064934;28;20034;-51
2024/03/21 04:40:22;;;;;;;6.80;1.92;;;;;;;;;;2065720;28;20023;-50
2024/03/21 04:41:23;;;;;;;5.80;1.40;;;;;;;;;;2065609;28;20030;-51
2024/03/21 04:42:24;;;;;;;4.38;1.80;;;;;;;;;;2065761;28;20038;-51
2024/03/21 04:43:26;;;;;;;6.05;1.55;;;;;;;;;;2065845;28;20114;-52
2024/03/21 04:44:27;;;;;;;4.25;1.70;;;;;;;;;;2064631;28;20023;-50
2024/03/21 04:45:28;;;;;;;6.13;1.52;;;;;;;;;;2056983;28;20490;-51
2024/03/21 04:46:30;;;;;;;7.78;1.35;;;;;;;;;;2056985;28;20056;-44
2024/03/21 04:47:31;;;;;;;4.40;1.58;;;;;;;;;;2062929;28;20033;-44
2024/03/21 04:48:32;;;;;;;4.60;1.40;;;;;;;;;;2049024;28;20485;-46
2024/03/21 04:49:35;;;;;;;8.15;1.65;;;;;;;;;;2056980;28;20011;-45
2024/03/21 04:50:36;;;;;;;7.43;2.00;;;;;;;;;;2057503;28;20383;-45
2024/03/21 04:51:37;;;;;;;3.33;1.25;;;;;;;;;;2057740;28;20031;-45
2024/03/21 04:52:38;;;;;;;4.57;1.23;;;;;;;;;;2057737;28;20011;-45
2024/03/21 04:53:40;;;;;;;5.15;1.23;;;;;;;;;;2057690;28;20058;-45
2024/03/21 04:54:41;;;;;;;6.35;1.88;;;;;;;;;;2057751;28;20034;-50
2024/03/21 04:55:43;;;;;;;6.55;1.98;;;;;;;;;;2056984;28;20061;-52
2024/03/21 04:56:44;;;;;;;5.55;1.70;;;;;;;;;;2057028;28;20026;-52
2024/03/21 04:57:46;;;;;;;4.88;1.60;;;;;;;;;;2057612;28;20089;-51
2024/03/21 04:58:48;;;;;;;9.27;2.10;;;;;;;;;;2056853;28;20019;-51
2024/03/21 04:59:49;;;;;;;11.90;1.77;;;;;;;;;;2052609;28;20023;-51
2024/03/21 05:00:50;;;;;;;8.23;1.35;;;;;;;;;;2056978;28;20826;-48
2024/03/21 05:02:01;;;;;;;9.60;2.17;;;;;;;;;;2065578;28;20026;-53
2024/03/21 05:03:02;;;;;;;7.10;2.10;;;;;;;;;;2065648;28;20021;-45
2024/03/21 05:04:07;;;;;;;6.60;1.25;;;;;;;;;;2062887;28;20026;-46
2024/03/21 05:05:09;;;;;;;7.68;1.60;;;;;;;;;;2061470;28;20072;-45
2024/03/21 05:06:10;;;;;;;5.25;1.85;;;;;;;;;;2065696;28;20138;-45
2024/03/21 05:07:11;;;;;;;6.15;1.50;;;;;;;;;;2065218;28;20037;-46
2024/03/21 05:08:12;;;;;;;7.60;1.75;;;;;;;;;;2060054;28;20117;-44
2024/03/21 05:09:14;;;;;;;5.25;1.30;;;;;;;;;;2058103;28;20034;-43
2024/03/21 05:10:15;;;;;;;8.68;1.65;;;;;;;;;;2057066;28;20074;-44
2024/03/21 05:11:17;;;;;;;7.05;2.08;;;;;;;;;;2056195;28;20038;-44
2024/03/21 05:12:19;;;;;;;9.95;2.25;;;;;;;;;;2053599;28;20030;-44
2024/03/21 05:13:21;;;;;;;8.43;1.95;;;;;;;;;;2063353;28;20019;-43
2024/03/21 05:14:22;;;;;;;7.82;2.08;;;;;;;;;;2064094;28;20043;-43
2024/03/21 05:15:24;;;;;;;7.45;1.27;;;;;;;;;;2065603;28;20034;-45
2024/03/21 05:16:28;;;;;;;6.75;2.00;;;;;;;;;;2063413;28;20035;-44
2024/03/21 05:17:30;;;;;;;8.80;1.95;;;;;;;;;;2063015;28;20038;-44
2024/03/21 05:18:31;;;;;;;6.22;1.90;;;;;;;;;;2064121;28;20604;-44
2024/03/21 05:19:33;;;;;;;10.32;2.53;;;;;;;;;;2057610;28;20096;-44
2024/03/21 05:20:35;;;;;;;6.70;1.77;;;;;;;;;;2057521;28;20042;-44
2024/03/21 05:21:36;;;;;;;6.85;1.83;;;;;;;;;;2057302;28;20441;-45
2024/03/21 05:22:38;;;;;;;9.85;1.50;;;;;;;;;;2061077;28;20027;-45
2024/03/21 05:23:39;;;;;;;6.85;1.65;;;;;;;;;;2065352;28;20035;-45
2024/03/21 05:24:40;;;;;;;8.45;1.60;;;;;;;;;;2060541;28;20011;-45
2024/03/21 05:25:42;;;;;;;7.13;1.38;;;;;;;;;;2061863;28;20071;-45
2024/03/21 05:26:43;;;;;;;7.47;1.73;;;;;;;;;;2065230;28;20093;-46
2024/03/21 05:27:45;;;;;;;10.40;1.92;;;;;;;;;;2061164;28;20109;-45
2024/03/21 05:28:46;;;;;;;8.07;2.05;;;;;;;;;;2056349;28;20189;-46
2024/03/21 05:29:47;;;;;;;6.82;1.77;;;;;;;;;;2058848;28;20030;-51
2024/03/21 05:30:49;;;;;;;6.93;1.70;;;;;;;;;;2057328;28;20537;-51
2024/03/21 05:31:50;;;;;;;5.72;1.63;;;;;;;;;;2057504;28;20042;-53
2024/03/21 05:32:51;;;;;;;7.72;1.50;;;;;;;;;;2060535;28;20474;-54
2024/03/21 05:33:54;;;;;;;10.02;1.85;;;;;;;;;;2059506;28;20057;-48
2024/03/21 05:34:55;;;;;;;5.82;1.60;;;;;;;;;;2058478;28;20105;-52
2024/03/21 05:35:56;;;;;;;7.03;1.92;;;;;;;;;;2062020;28;20045;-51
2024/03/21 05:36:59;;;;;;;8.65;1.73;;;;;;;;;;2064000;28;20011;-52
2024/03/21 05:38:00;;;;;;;7.38;1.55;;;;;;;;;;2062993;28;20393;-54
2024/03/21 05:39:03;;;;;;;7.18;1.85;;;;;;;;;;2057432;28;20501;-51
2024/03/21 05:40:04;;;;;;;8.02;1.70;;;;;;;;;;2056684;28;20042;-45
2024/03/21 05:41:06;;;;;;;6.82;2.00;;;;;;;;;;2056494;28;20441;-45
2024/03/21 05:42:10;;;;;;;11.07;1.88;;;;;;;;;;2048277;28;20042;-44
2024/03/21 05:43:11;;;;;;;6.43;1.38;;;;;;;;;;2048849;28;20019;-51
2024/03/21 05:44:12;;;;;;;5.28;1.95;;;;;;;;;;2062818;28;20124;-51
2024/03/21 05:45:14;;;;;;;7.80;1.52;;;;;;;;;;2059745;28;20081;-50
2024/03/21 05:46:15;;;;;;;5.30;1.80;;;;;;;;;;2057399;28;20478;-53
2024/03/21 05:47:23;;;;;;;7.07;1.88;;;;;;;;;;2060798;28;20050;-44
2024/03/21 05:48:25;;;;;;;8.63;1.90;;;;;;;;;;2064857;28;20030;-44
2024/03/21 05:49:26;;;;;;;6.57;1.45;;;;;;;;;;2057391;28;20030;-43
2024/03/21 05:50:27;;;;;;;9.63;2.10;;;;;;;;;;2059973;28;20100;-44
2024/03/21 05:51:29;;;;;;;8.75;2.33;;;;;;;;;;2065357;28;20436;-44
2024/03/21 05:52:30;;;;;;;4.95;1.92;;;;;;;;;;2058521;28;20037;-44
2024/03/21 05:53:31;;;;;;;5.03;1.55;;;;;;;;;;2056957;28;20425;-44
2024/03/21 05:54:33;;;;;;;6.70;1.77;;;;;;;;;;2056480;28;20066;-47
2024/03/21 05:55:34;;;;;;;5.60;2.03;;;;;;;;;;2056753;28;20030;-46
2024/03/21 05:56:36;;;;;;;5.68;1.77;;;;;;;;;;2056455;28;20034;-51
2024/03/21 05:57:38;;;;;;;5.40;1.65;;;;;;;;;;2063778;28;20022;-53
2024/03/21 05:58:39;;;;;;;6.90;2.00;;;;;;;;;;2065310;28;20027;-52
2024/03/21 05:59:40;;;;;;;9.95;1.80;;;;;;;;;;2065302;28;20050;-52
2024/03/21 06:00:42;;;;;;;6.97;1.95;;;;;;;;;;2065220;28;20121;-52
2024/03/21 06:01:43;;;;;;;7.45;1.52;;;;;;;;;;2063293;28;20045;-51
2024/03/21 06:02:44;;;;;;;6.35;2.65;;;;;;;;;;2060030;28;20789;-51
2024/03/21 06:03:46;;;;;;;12.55;2.10;;;;;;;;;;2056425;28;20029;-53
2024/03/21 06:04:47;;;;;;;9.15;2.30;;;;;;;;;;2058884;28;20073;-52
2024/03/21 06:05:49;;;;;;;8.70;1.95;;;;;;;;;;2056866;28;20019;-52
2024/03/21 06:06:50;;;;;;;8.15;1.90;;;;;;;;;;2060676;28;20433;-52
2024/03/21 06:07:52;;;;;;;7.97;2.30;;;;;;;;;;2057167;28;20029;-51
2024/03/21 06:08:53;;;;;;;5.43;2.05;;;;;;;;;;2057067;28;20025;-52
2024/03/21 06:09:54;;;;;;;7.30;2.28;;;;;;;;;;2057177;28;20019;-52
2024/03/21 06:10:56;;;;;;;5.93;2.05;;;;;;;;;;2057309;28;20077;-51
2024/03/21 06:11:57;;;;;;;6.95;2.28;;;;;;;;;;2058786;28;20453;-49